createdAt,value
2024-01-21T00:02:09.120Z,98519.78
2024-01-21T00:04:55.952Z,98513.78
2024-01-21T00:07:42.792Z,98507.81
2024-01-21T00:10:29.650Z,98509.66
2024-01-21T00:13:16.518Z,98502.00
2024-01-21T00:16:03.489Z,98505.66
2024-01-21T00:18:50.433Z,98503.19
2024-01-21T00:21:37.424Z,98492.91
2024-01-21T00:24:25.319Z,98493.00
2024-01-21T00:27:12.233Z,98498.31
2024-01-21T00:29:59.202Z,98498.41
2024-01-21T00:32:46.069Z,98495.84
2024-01-21T00:35:33.005Z,98489.78
2024-01-21T00:38:19.855Z,98486.50
2024-01-21T00:41:06.692Z,98473.59
2024-01-21T00:43:53.517Z,98472.75
2024-01-21T00:46:40.442Z,98478.09
2024-01-21T00:49:27.961Z,98478.16
2024-01-21T00:52:14.874Z,98487.03
2024-01-21T00:55:01.761Z,98488.88
2024-01-21T00:57:49.284Z,98485.53
2024-01-21T01:00:36.224Z,98477.84
2024-01-21T01:03:23.232Z,98477.91
2024-01-21T01:06:10.161Z,98478.03
2024-01-21T01:08:57.020Z,98469.50
2024-01-21T01:11:43.948Z,98467.00
2024-01-21T01:14:30.837Z,98463.72
2024-01-21T01:17:17.804Z,98463.78
2024-01-21T01:20:06.046Z,98473.50
2024-01-21T01:22:52.988Z,98464.03
2024-01-21T01:25:39.813Z,98459.81
2024-01-21T01:28:26.643Z,98452.06
2024-01-21T01:31:20.612Z,98454.00
2024-01-21T01:34:07.532Z,98454.91
2024-01-21T01:36:54.533Z,98447.16
2024-01-21T01:39:41.450Z,98445.66
2024-01-21T01:42:28.381Z,98441.44
2024-01-21T01:45:15.357Z,98436.31
2024-01-21T01:48:04.244Z,98433.75
2024-01-21T01:50:51.254Z,98433.09
2024-01-21T01:53:38.881Z,98420.94
2024-01-21T01:56:25.887Z,98428.91
2024-01-21T01:59:15.241Z,98420.38
2024-01-21T02:02:01.978Z,98416.06
2024-01-21T02:04:50.212Z,98416.16
2024-01-21T02:07:37.075Z,98406.72
2024-01-21T02:10:23.916Z,98412.88
2024-01-21T02:13:10.757Z,98406.97
2024-01-21T02:16:00.129Z,98410.59
2024-01-21T02:18:49.137Z,98407.22
2024-01-21T02:21:36.096Z,98421.19
2024-01-21T02:24:30.463Z,98417.84
2024-01-21T02:27:17.499Z,98410.25
2024-01-21T02:30:04.780Z,98410.34
2024-01-21T02:32:51.662Z,98409.66
2024-01-21T02:35:38.608Z,98407.19
2024-01-21T02:38:25.485Z,98402.06
2024-01-21T02:41:12.480Z,98400.47
2024-01-21T02:44:00.210Z,98394.50
2024-01-21T02:46:47.052Z,98390.19
2024-01-21T02:49:34.090Z,98401.56
2024-01-21T02:52:21.037Z,98400.81
2024-01-21T02:55:07.991Z,98399.19
2024-01-21T02:57:55.037Z,98394.03
2024-01-21T03:00:41.973Z,98401.97
2024-01-21T03:03:28.895Z,98393.38
2024-01-21T03:06:15.785Z,98391.78
2024-01-21T03:09:02.641Z,98400.53
2024-01-21T03:11:49.519Z,98399.84
2024-01-21T03:14:36.356Z,98391.19
2024-01-21T03:17:23.200Z,98387.88
2024-01-21T03:20:10.857Z,98381.97
2024-01-21T03:22:57.883Z,98388.13
2024-01-21T03:25:44.737Z,98380.56
2024-01-21T03:28:31.634Z,98391.00
2024-01-21T03:31:20.496Z,98391.06
2024-01-21T03:34:07.412Z,98379.94
2024-01-21T03:36:54.345Z,98385.16
2024-01-21T03:39:41.304Z,98384.41
2024-01-21T03:42:28.317Z,98380.19
2024-01-21T03:45:15.286Z,98381.97
2024-01-21T03:48:02.435Z,98373.34
2024-01-21T03:50:49.429Z,98369.06
2024-01-21T03:53:37.943Z,98363.09
2024-01-21T03:56:25.815Z,98363.25
2024-01-21T03:59:12.682Z,98361.66
2024-01-21T04:01:59.547Z,98359.19
2024-01-21T04:04:46.623Z,98352.31
2024-01-21T04:07:34.121Z,98347.19
2024-01-21T04:10:21.038Z,98342.03
2024-01-21T04:13:07.920Z,98348.19
2024-01-21T04:15:54.890Z,98346.56
2024-01-21T04:18:42.104Z,98346.66
2024-01-21T04:21:29.103Z,98359.75
2024-01-21T04:24:16.608Z,98348.56
2024-01-21T04:27:03.623Z,98344.34
2024-01-21T04:29:50.473Z,98336.63
2024-01-21T04:32:37.556Z,98330.63
2024-01-21T04:35:24.427Z,98328.94
2024-01-21T04:38:11.325Z,98322.03
2024-01-21T04:40:58.202Z,98314.38
2024-01-21T04:43:47.886Z,98323.22
2024-01-21T04:46:34.722Z,98328.47
2024-01-21T04:49:21.720Z,98321.69
2024-01-21T04:52:08.633Z,98319.13
2024-01-21T04:54:55.627Z,98328.00
2024-01-21T04:57:42.813Z,98317.63
2024-01-21T05:00:29.719Z,98311.66
2024-01-21T05:03:16.747Z,98306.59
2024-01-21T05:06:05.144Z,98321.41
2024-01-21T05:08:51.960Z,98321.47
2024-01-21T05:11:39.028Z,98325.00
2024-01-21T05:14:25.891Z,98324.22
2024-01-21T05:17:12.782Z,98325.41
2024-01-21T05:19:59.656Z,98332.22
2024-01-21T05:22:46.496Z,98327.16
2024-01-21T05:25:33.389Z,98329.81
2024-01-21T05:28:20.235Z,98317.97
2024-01-21T05:31:07.764Z,98319.72
2024-01-21T05:33:54.732Z,98324.06
2024-01-21T05:36:43.290Z,98326.78
2024-01-21T05:39:30.449Z,98322.56
2024-01-21T05:42:17.309Z,98319.19
2024-01-21T05:45:04.640Z,98321.88
2024-01-21T05:47:51.603Z,98324.56
2024-01-21T05:50:38.495Z,98315.13
2024-01-21T05:53:25.345Z,98315.38
2024-01-21T05:56:13.421Z,98317.28
2024-01-21T05:59:00.277Z,98325.94
2024-01-21T06:01:51.548Z,98333.00
2024-01-21T06:04:41.347Z,98322.63
2024-01-21T06:07:28.370Z,98335.75
2024-01-21T06:10:15.274Z,98343.63
2024-01-21T06:13:02.130Z,98346.31
2024-01-21T06:15:49.084Z,98346.38
2024-01-21T06:18:36.027Z,98350.84
2024-01-21T06:21:22.970Z,98348.28
2024-01-21T06:24:10.578Z,98339.72
2024-01-21T06:26:57.446Z,98345.91
2024-01-21T06:29:46.171Z,98355.50
2024-01-21T06:32:33.079Z,98363.41
2024-01-21T06:35:19.951Z,98360.00
2024-01-21T06:38:06.847Z,98373.03
2024-01-21T06:40:54.094Z,98367.13
2024-01-21T06:43:41.229Z,98365.59
2024-01-21T06:46:28.135Z,98365.03
2024-01-21T06:49:15.237Z,98367.78
2024-01-21T06:52:02.159Z,98374.00
2024-01-21T06:54:49.069Z,98368.00
2024-01-21T06:57:36.070Z,98372.44
2024-01-21T07:00:23.179Z,98376.88
2024-01-21T07:03:10.193Z,98368.28
2024-01-21T07:05:57.558Z,98380.63
2024-01-21T07:08:44.423Z,98378.88
2024-01-21T07:11:36.257Z,98392.78
2024-01-21T07:14:23.246Z,98377.25
2024-01-21T07:17:10.821Z,98384.41
2024-01-21T07:19:57.844Z,98374.22
2024-01-21T07:22:44.748Z,98377.81
2024-01-21T07:25:31.660Z,98378.81
2024-01-21T07:28:18.574Z,98378.09
2024-01-21T07:31:05.459Z,98369.66
2024-01-21T07:33:52.462Z,98379.88
2024-01-21T07:36:39.458Z,98374.81
2024-01-21T07:39:26.489Z,98378.25
2024-01-21T07:42:13.414Z,98378.81
2024-01-21T07:45:00.329Z,98375.00
2024-01-21T07:47:47.545Z,98377.31
2024-01-21T07:50:34.808Z,98379.72
2024-01-21T07:53:21.856Z,98389.13
2024-01-21T07:56:08.709Z,98394.31
2024-01-21T07:58:55.605Z,98392.44
2024-01-21T08:01:42.719Z,98393.91
2024-01-21T08:04:29.594Z,98387.63
2024-01-21T08:07:16.524Z,98390.84
2024-01-21T08:10:06.140Z,98396.84
2024-01-21T08:12:53.170Z,98390.72
2024-01-21T08:15:40.214Z,98381.22
2024-01-21T08:18:28.109Z,98370.72
2024-01-21T08:21:15.169Z,98385.44
2024-01-21T08:24:04.510Z,98379.31
2024-01-21T08:26:51.663Z,98388.81
2024-01-21T08:29:41.794Z,98393.03
2024-01-21T08:32:28.756Z,98386.91
2024-01-21T08:35:15.941Z,98387.75
2024-01-21T08:38:03.219Z,98391.22
2024-01-21T08:40:50.182Z,98395.50
2024-01-21T08:43:37.081Z,98397.19
2024-01-21T08:46:23.899Z,98401.41
2024-01-21T08:49:11.034Z,98390.84
2024-01-21T08:51:58.968Z,98389.06
2024-01-21T08:54:45.984Z,98381.16
2024-01-21T08:57:33.585Z,98388.84
2024-01-21T09:00:20.598Z,98404.34
2024-01-21T09:03:07.549Z,98404.25
2024-01-21T09:05:54.400Z,98405.97
2024-01-21T09:08:41.571Z,98410.09
2024-01-21T09:11:28.445Z,98411.88
2024-01-21T09:14:15.666Z,98403.97
2024-01-21T09:17:02.755Z,98397.81
2024-01-21T09:19:49.730Z,98379.53
2024-01-21T09:22:36.900Z,98374.22
2024-01-21T09:25:23.863Z,98363.75
2024-01-21T09:28:12.117Z,98366.25
2024-01-21T09:30:59.412Z,98366.16
2024-01-21T09:33:46.590Z,98359.13
2024-01-21T09:36:36.275Z,98360.75
2024-01-21T09:39:23.339Z,98362.34
2024-01-21T09:42:18.026Z,98354.59
2024-01-21T09:45:05.394Z,98349.25
2024-01-21T09:47:54.541Z,98349.25
2024-01-21T09:50:41.990Z,98356.03
2024-01-21T09:53:29.085Z,98361.19
2024-01-21T09:56:17.967Z,98358.50
2024-01-21T09:59:06.881Z,98369.72
2024-01-21T10:01:53.919Z,98378.47
2024-01-21T10:04:47.365Z,98381.75
2024-01-21T10:07:34.866Z,98380.81
2024-01-21T10:10:21.809Z,98375.47
2024-01-21T10:13:08.879Z,98359.72
2024-01-21T10:15:55.837Z,98344.88
2024-01-21T10:18:47.312Z,98348.22
2024-01-21T10:21:34.215Z,98348.16
2024-01-21T10:24:25.685Z,98340.19
2024-01-21T10:27:14.130Z,98337.41
2024-01-21T10:30:01.418Z,98332.97
2024-01-21T10:32:48.649Z,98327.66
2024-01-21T10:35:36.001Z,98346.69
2024-01-21T10:38:25.176Z,98358.72
2024-01-21T10:41:15.272Z,98377.56
2024-01-21T10:44:03.860Z,98359.06
2024-01-21T10:46:51.623Z,98369.28
2024-01-21T10:49:40.406Z,98352.72
2024-01-21T10:52:27.774Z,98365.50
2024-01-21T10:55:14.779Z,98366.13
2024-01-21T10:58:01.819Z,98364.25
2024-01-21T11:00:52.101Z,98357.22
2024-01-21T11:03:39.869Z,98348.19
2024-01-21T11:06:26.850Z,98367.09
2024-01-21T11:09:15.501Z,98382.50
2024-01-21T11:12:03.944Z,98382.31
2024-01-21T11:14:51.181Z,98381.25
2024-01-21T11:17:38.368Z,98372.41
2024-01-21T11:20:25.605Z,98371.38
2024-01-21T11:23:15.983Z,98364.22
2024-01-21T11:26:03.153Z,98355.41
2024-01-21T11:28:50.534Z,98349.34
2024-01-21T11:31:37.701Z,98339.81
2024-01-21T11:34:25.342Z,98340.66
2024-01-21T11:37:14.998Z,98353.53
2024-01-21T11:40:03.040Z,98360.28
2024-01-21T11:42:51.890Z,98338.47
2024-01-21T11:45:40.178Z,98348.75
2024-01-21T11:48:31.383Z,98343.53
2024-01-21T11:51:18.280Z,98327.94
2024-01-21T11:54:06.392Z,98337.22
2024-01-21T11:56:56.411Z,98343.19
2024-01-21T11:59:43.711Z,98337.88
2024-01-21T12:02:30.538Z,98338.72
2024-01-21T12:05:20.536Z,98338.63
2024-01-21T12:08:08.673Z,98333.34
2024-01-21T12:10:55.549Z,98328.84
2024-01-21T12:13:42.636Z,98333.06
2024-01-21T12:16:29.504Z,98350.34
2024-01-21T12:19:18.434Z,98362.38
2024-01-21T12:22:06.680Z,98363.16
2024-01-21T12:24:55.548Z,98380.44
2024-01-21T12:27:46.227Z,98390.78
2024-01-21T12:30:33.474Z,98389.00
2024-01-21T12:33:21.408Z,98382.88
2024-01-21T12:36:09.281Z,98385.41
2024-01-21T12:38:58.941Z,98378.31
2024-01-21T12:41:47.835Z,98381.78
2024-01-21T12:44:34.726Z,98370.28
2024-01-21T12:47:21.759Z,98372.75
2024-01-21T12:50:11.601Z,98374.44
2024-01-21T12:52:58.763Z,98368.19
2024-01-21T12:55:45.783Z,98378.56
2024-01-21T12:58:33.871Z,98366.25
2024-01-21T13:01:20.984Z,98371.47
2024-01-21T13:04:08.117Z,98372.31
2024-01-21T13:06:55.157Z,98368.69
2024-01-21T13:09:42.067Z,98388.59
2024-01-21T13:12:29.466Z,98383.28
2024-01-21T13:15:16.872Z,98370.13
2024-01-21T13:18:04.106Z,98376.03
2024-01-21T13:20:51.262Z,98369.75
2024-01-21T13:23:38.087Z,98368.84
2024-01-21T13:26:26.377Z,98370.44
2024-01-21T13:29:31.555Z,98365.13
2024-01-21T13:32:18.525Z,98364.31
2024-01-21T13:35:06.099Z,98355.41
2024-01-21T13:37:54.789Z,98335.28
2024-01-21T13:40:42.190Z,98332.66
2024-01-21T13:43:32.342Z,98328.16
2024-01-21T13:46:19.213Z,98316.03
2024-01-21T13:49:06.156Z,98314.19
2024-01-21T13:51:53.560Z,98299.41
2024-01-21T13:54:41.310Z,98311.56
2024-01-21T13:57:29.403Z,98301.97
2024-01-21T14:00:17.824Z,98297.38
2024-01-21T14:03:07.138Z,98295.63
2024-01-21T14:05:56.076Z,98284.22
2024-01-21T14:08:43.061Z,98266.69
2024-01-21T14:11:29.943Z,98277.88
2024-01-21T14:14:16.816Z,98287.50
2024-01-21T14:17:04.040Z,98296.94
2024-01-21T14:19:51.100Z,98302.06
2024-01-21T14:22:40.203Z,98318.59
2024-01-21T14:25:40.075Z,98328.13
2024-01-21T14:28:28.011Z,98328.88
2024-01-21T14:31:14.845Z,98322.63
2024-01-21T14:34:01.770Z,98326.84
2024-01-21T14:36:48.982Z,98325.91
2024-01-21T14:39:35.879Z,98332.09
2024-01-21T14:42:22.788Z,98324.13
2024-01-21T14:45:10.167Z,98315.44
2024-01-21T14:47:57.239Z,98318.06
2024-01-21T14:50:44.148Z,98322.53
2024-01-21T14:53:31.252Z,98336.47
2024-01-21T14:56:18.132Z,98335.53
2024-01-21T14:59:05.079Z,98324.91
2024-01-21T15:01:52.561Z,98312.56
2024-01-21T15:04:39.609Z,98319.50
2024-01-21T15:07:26.940Z,98323.78
2024-01-21T15:10:13.912Z,98321.22
2024-01-21T15:13:00.975Z,98302.84
2024-01-21T15:15:48.011Z,98304.63
2024-01-21T15:18:35.327Z,98315.09
2024-01-21T15:21:22.422Z,98318.53
2024-01-21T15:24:09.356Z,98332.47
2024-01-21T15:26:56.289Z,98334.13
2024-01-21T15:29:43.129Z,98341.91
2024-01-21T15:32:30.863Z,98346.19
2024-01-21T15:35:17.778Z,98354.81
2024-01-21T15:38:04.781Z,98358.16
2024-01-21T15:40:51.633Z,98353.78
2024-01-21T15:43:38.638Z,98359.84
2024-01-21T15:46:25.657Z,98364.22
2024-01-21T15:49:12.786Z,98381.69
2024-01-21T15:52:02.400Z,98378.53
2024-01-21T15:54:49.581Z,98388.56
2024-01-21T15:57:36.546Z,98399.47
2024-01-21T16:00:24.447Z,98396.41
2024-01-21T16:03:12.977Z,98392.34
2024-01-21T16:06:00.026Z,98386.44
2024-01-21T16:08:47.003Z,98397.00
2024-01-21T16:11:34.014Z,98413.59
2024-01-21T16:14:20.927Z,98424.06
2024-01-21T16:17:07.801Z,98416.22
2024-01-21T16:19:54.722Z,98419.59
2024-01-21T16:22:42.578Z,98403.75
2024-01-21T16:25:29.508Z,98404.56
2024-01-21T16:28:16.427Z,98407.09
2024-01-21T16:31:03.625Z,98414.94
2024-01-21T16:33:50.981Z,98420.25
2024-01-21T16:36:38.436Z,98409.72
2024-01-21T16:39:25.486Z,98408.03
2024-01-21T16:42:13.874Z,98402.69
2024-01-21T16:45:01.955Z,98407.03
2024-01-21T16:47:49.084Z,98399.84
2024-01-21T16:50:36.023Z,98395.53
2024-01-21T16:53:29.400Z,98405.06
2024-01-21T16:56:16.586Z,98402.38
2024-01-21T16:59:03.538Z,98391.91
2024-01-21T17:01:57.766Z,98390.88
2024-01-21T17:04:45.815Z,98377.72
2024-01-21T17:07:33.321Z,98370.03
2024-01-21T17:10:30.609Z,98376.22
2024-01-21T17:13:17.473Z,98367.44
2024-01-21T17:16:04.907Z,98372.88
2024-01-21T17:19:05.042Z,98379.94
2024-01-21T17:21:52.096Z,98357.34
2024-01-21T17:24:39.173Z,98351.06
2024-01-21T17:27:26.109Z,98358.75
2024-01-21T17:30:13.401Z,98349.34
2024-01-21T17:33:00.758Z,98354.56
2024-01-21T17:35:47.753Z,98340.63
2024-01-21T17:38:34.789Z,98335.59
2024-01-21T17:41:22.825Z,98356.56
2024-01-21T17:44:10.232Z,98351.44
2024-01-21T17:46:57.098Z,98345.38
2024-01-21T17:49:45.001Z,98347.91
2024-01-21T17:52:32.820Z,98350.41
2024-01-21T17:55:19.810Z,98349.56
2024-01-21T17:58:06.681Z,98357.41
2024-01-21T18:00:56.915Z,98366.31
2024-01-21T18:03:43.886Z,98373.38
2024-01-21T18:06:32.137Z,98366.53
2024-01-21T18:09:19.017Z,98367.47
2024-01-21T18:12:09.986Z,98375.31
2024-01-21T18:14:56.945Z,98373.53
2024-01-21T18:17:43.892Z,98373.47
2024-01-21T18:20:31.315Z,98374.31
2024-01-21T18:23:18.367Z,98368.25
2024-01-21T18:26:07.364Z,98367.31
2024-01-21T18:29:09.628Z,98364.69
2024-01-21T18:32:05.155Z,98375.16
2024-01-21T18:34:52.667Z,98375.88
2024-01-21T18:37:40.403Z,98372.44
2024-01-21T18:40:28.147Z,98364.53
2024-01-21T18:43:15.436Z,98373.28
2024-01-21T18:46:02.268Z,98368.03
2024-01-21T18:48:49.295Z,98353.41
2024-01-21T18:51:36.200Z,98363.19
2024-01-21T18:54:23.290Z,98365.81
2024-01-21T18:57:12.494Z,98351.63
2024-01-21T19:00:00.791Z,98355.63
2024-01-21T19:02:48.246Z,98360.63
2024-01-21T19:05:35.505Z,98357.06
2024-01-21T19:08:22.402Z,98345.69
2024-01-21T19:11:09.266Z,98338.00
2024-01-21T19:13:56.201Z,98332.88
2024-01-21T19:16:43.143Z,98335.66
2024-01-21T19:19:30.063Z,98330.53
2024-01-21T19:22:16.969Z,98326.22
2024-01-21T19:25:09.070Z,98323.81
2024-01-21T19:27:55.984Z,98323.88
2024-01-21T19:30:42.960Z,98320.53
2024-01-21T19:33:29.902Z,98311.91
2024-01-21T19:36:17.213Z,98314.63
2024-01-21T19:39:04.341Z,98318.16
2024-01-21T19:41:51.250Z,98322.56
2024-01-21T19:44:38.141Z,98326.09
2024-01-21T19:47:25.097Z,98324.22
2024-01-21T19:50:14.209Z,98319.88
2024-01-21T19:53:01.461Z,98307.81
2024-01-21T19:55:49.835Z,98303.41
2024-01-21T19:58:36.656Z,98301.75
2024-01-21T20:01:23.507Z,98294.06
2024-01-21T20:04:14.511Z,98296.59
2024-01-21T20:07:01.520Z,98293.13
2024-01-21T20:09:51.890Z,98288.66
2024-01-21T20:12:39.184Z,98292.19
2024-01-21T20:15:28.433Z,98277.44
2024-01-21T20:18:15.887Z,98275.69
2024-01-21T20:21:02.892Z,98268.78
2024-01-21T20:23:49.825Z,98279.13
2024-01-21T20:26:36.712Z,98275.69
2024-01-21T20:29:23.791Z,98255.59
2024-01-21T20:32:10.671Z,98241.69
2024-01-21T20:34:58.423Z,98239.09
2024-01-21T20:37:45.268Z,98241.69
2024-01-21T20:40:32.850Z,98246.94
2024-01-21T20:43:20.082Z,98240.78
2024-01-21T20:46:07.091Z,98239.09
2024-01-21T20:48:54.137Z,98239.09
2024-01-21T20:51:41.326Z,98236.41
2024-01-21T20:54:32.899Z,98240.78
2024-01-21T20:57:21.244Z,98233.03
2024-01-21T21:00:10.053Z,98235.56
2024-01-21T21:02:57.126Z,98254.59
2024-01-21T21:05:44.574Z,98249.47
2024-01-21T21:08:32.283Z,98252.09
2024-01-21T21:11:19.658Z,98254.69
2024-01-21T21:14:07.340Z,98253.94
2024-01-21T21:16:54.190Z,98251.31
2024-01-21T21:19:42.655Z,98250.47
2024-01-21T21:22:32.594Z,98243.47
2024-01-21T21:25:20.236Z,98243.47
2024-01-21T21:28:07.094Z,98228.63
2024-01-21T21:30:54.183Z,98219.00
2024-01-21T21:33:41.179Z,98204.28
2024-01-21T21:36:28.368Z,98201.66
2024-01-21T21:39:17.488Z,98193.94
2024-01-21T21:42:04.517Z,98200.00
2024-01-21T21:44:51.438Z,98204.28
2024-01-21T21:47:38.470Z,98207.72
2024-01-21T21:50:26.233Z,98200.81
2024-01-21T21:53:13.247Z,98203.44
2024-01-21T21:56:00.160Z,98203.53
2024-01-21T21:58:47.085Z,98210.44
2024-01-21T22:01:34.189Z,98214.84
2024-01-21T22:04:21.592Z,98206.16
2024-01-21T22:07:08.691Z,98213.06
2024-01-21T22:09:55.670Z,98208.84
2024-01-21T22:12:42.559Z,98209.78
2024-01-21T22:15:29.538Z,98202.00
2024-01-21T22:18:16.561Z,98202.13
2024-01-21T22:21:03.666Z,98204.72
2024-01-21T22:23:50.763Z,98209.84
2024-01-21T22:26:37.672Z,98194.19
2024-01-21T22:29:24.616Z,98193.25
2024-01-21T22:32:11.511Z,98189.81
2024-01-21T22:34:58.432Z,98189.88
2024-01-21T22:37:46.001Z,98186.53
2024-01-21T22:40:32.868Z,98175.25
2024-01-21T22:43:20.552Z,98174.31
2024-01-21T22:46:07.662Z,98170.94
2024-01-21T22:48:54.822Z,98158.03
2024-01-21T22:51:41.789Z,98159.81
2024-01-21T22:54:28.607Z,98141.72
2024-01-21T22:57:15.636Z,98150.41
2024-01-21T23:00:07.233Z,98154.78
2024-01-21T23:02:54.379Z,98146.09
2024-01-21T23:05:41.317Z,98147.81
2024-01-21T23:08:28.599Z,98148.72
2024-01-21T23:11:15.453Z,98143.59
2024-01-21T23:14:02.280Z,98139.31
2024-01-21T23:16:49.135Z,98140.22
2024-01-21T23:19:36.068Z,98136.78
2024-01-21T23:22:23.068Z,98120.25
2024-01-21T23:25:09.945Z,98117.66
2024-01-21T23:27:56.800Z,98111.59
2024-01-21T23:30:43.712Z,98114.19
2024-01-21T23:33:30.799Z,98112.59
2024-01-21T23:36:17.734Z,98117.81
2024-01-21T23:39:04.596Z,98110.94
2024-01-21T23:41:51.669Z,98105.78
2024-01-21T23:44:38.547Z,98097.94
2024-01-21T23:47:26.086Z,98084.03
2024-01-21T23:50:13.408Z,98080.69
2024-01-21T23:53:00.413Z,98081.53
2024-01-21T23:55:47.275Z,98087.69
2024-01-21T23:58:34.266Z,98086.94
